Terminal Aerodrome Forecast
Issued by NWS Grand Forks, ND

Home | Current Version | Previous Version | Text Only | Print | Product List | Glossary Off
Versions: 1 2 3 4 5 6 7 8 9 10 11 12 13 14

000
FTUS43 KFGF 221130
TAFFAR
TAF
KFAR 221130Z 2212/2312 15007KT P6SM FEW250
     FM222000 16008KT P6SM BKN045
     FM230000 13006KT 5SM -SN OVC045
     FM230200 12006KT 1SM -SN OVC025
     FM230600 05004KT 1SM -SN OVC010
     FM231000 35005KT P6SM BKN010=

USA.gov is the U.S. government's official web portal to all federal, state and local government web resources and services.